Metar z połowy godziny Komunikat METAR ze strony awiacja.imgw.pl Metar Mil EPSN METAR EPSN 230830Z 29016KT 9999 SCT015 BKN020 06/04 Q1020 RMK 060 087 6/4=